Budapest

METAR
SPECI

METAR LHBP 272030Z VRB02KT CAVOK 17/14 Q1021 NOSIG=

METAR LHBP 272000Z VRB01KT CAVOK 17/14 Q1021 NOSIG=

METAR LHBP 271930Z VRB01KT CAVOK 18/15 Q1021 NOSIG=

METAR LHBP 271900Z VRB02KT CAVOK 19/15 Q1021 NOSIG=

METAR LHBP 271830Z VRB02KT CAVOK 20/15 Q1021 NOSIG=

METAR LHBP 271800Z VRB01KT CAVOK 22/16 Q1021 NOSIG=


TAF

TAF LHBP 271700Z 2718/2818 VRB03KT CAVOK BECMG 2809/2812 15007KT=

METARRepülőterek meteorológiai tényadatai félóránkéntSAHU31
SAHU41
SPECIKülönleges időjárás-jelentő táviratSPHU31
SPHU85
TAFRepülőterek legfrissebb meteorológiai előrejelzéseFTHU31
FCHU41

GAMET

Nincs érvényes távirat 

FAHU41 LHBM 271100
LHCC GAMET VALID 271200/271800 LHBP-
LHCC BUDAPEST FIR BLW FL100

SECN I
HAZARDOUS WX NIL=
OMSZ:  [FAHU41]
GAMETTerületi előrejelzés, FL100 (~3000 m) alatti veszélyes időjárási jelenségekrőlFAHU41
AIRMET

Nincs érvényes távirat 

WAHU41 LHBM 111445
LHCC AIRMET 01 VALID 111445/111800 LHBP-
LHCC BUDAPEST FIR ISOL TS OBS WI N4802 E01919 - N4721 E02021
- N4827 E02135 - N4802 E01919 TOP FL270 STNR WKN=
OMSZ:  [WAHU41]
AIRMETRiasztás a kisgépes repülés számára veszélyes időjárási jelenség miatt (talajszint és FL100 közötti légtérre)WAHU41
SIGMET

Nincs érvényes távirat 

WSHU31 LHBM 231845
LHCC SIGMET 02 VALID 231850/232150 LHBP-
LHCC BUDAPEST FIR SEV TURB FCST WI N4600 E01900 - N4742
E02043 - N4741 E02211 - N4609 E02019 - N4600 E01900
FL260/340 MOV S WKN=
OMSZ:  [WSHU31]
SIGMETRiasztás, a repülésre különösen veszélyes időjárási jelenség miatt (talajszint és FL450 közötti légtérre)WSHU31
SIGMET
Vulkáni
hamufelhő

Nincs érvényes távirat 

WVHU31 LHBM 271515 CCA
LHCC SIGMET 03 VALID 271515/271800 LHBP-
LHCC BUDAPEST FIR EXERCISE VOLCEX12/01
CNL VA SIGMET 02 271200/271800
EXERCISE EXERCISE EXERCISE VOLCEX12/01=
OMSZ:  [WVHU31]
SIGMET
Vulkáni
hamufelhő
Riasztás, a repülésre különösen veszélyes vulkáni tevékenység miattWVHU31